createdAt,value
2022-12-12T00:03:14.700Z,19.33
2022-12-12T00:08:18.412Z,14.40
2022-12-12T00:13:23.485Z,15.35
2022-12-12T00:23:30.335Z,10.68
2022-12-12T00:28:35.606Z,17.75
2022-12-12T00:33:39.262Z,15.43
2022-12-12T00:38:42.870Z,16.10
2022-12-12T00:43:48.055Z,16.50
2022-12-12T00:48:51.867Z,15.18
2022-12-12T00:53:55.478Z,17.45
2022-12-12T00:59:00.449Z,16.50
2022-12-12T01:09:08.547Z,15.47
2022-12-12T01:14:13.457Z,12.35
2022-12-12T01:24:20.120Z,11.63
2022-12-12T01:29:25.333Z,13.93
2022-12-12T01:34:28.979Z,11.23
2022-12-12T01:39:32.692Z,10.73
2022-12-12T01:44:44.773Z,10.60
2022-12-12T01:49:53.371Z,10.85
2022-12-12T01:54:59.877Z,11.02
2022-12-12T02:00:07.492Z,10.88
2022-12-12T02:05:20.501Z,11.00
2022-12-12T02:10:24.185Z,11.65
2022-12-12T02:15:39.847Z,8.90
2022-12-12T02:20:59.648Z,7.63
2022-12-12T02:26:42.744Z,9.65
2022-12-12T02:31:53.816Z,11.60
2022-12-12T02:37:06.631Z,11.02
2022-12-12T02:42:19.746Z,9.02
2022-12-12T02:47:28.130Z,10.88
2022-12-12T02:52:32.118Z,8.05
2022-12-12T02:57:35.701Z,10.10
2022-12-12T03:03:25.919Z,10.50
2022-12-12T03:08:46.495Z,9.38
2022-12-12T03:13:58.935Z,10.60
2022-12-12T03:19:13.557Z,10.50
2022-12-12T03:24:24.046Z,7.18
2022-12-12T03:29:31.206Z,7.85
2022-12-12T03:34:41.071Z,8.90
2022-12-12T03:39:49.441Z,9.50
2022-12-12T03:45:02.323Z,7.80
2022-12-12T03:50:16.431Z,8.55
2022-12-12T03:55:26.649Z,8.10
2022-12-12T04:00:34.125Z,8.00
2022-12-12T04:06:05.457Z,9.90
2022-12-12T04:11:36.623Z,8.65
2022-12-12T04:16:44.238Z,7.38
2022-12-12T04:22:15.379Z,7.78
2022-12-12T04:27:27.516Z,5.72
2022-12-12T04:32:35.839Z,6.90
2022-12-12T04:37:44.813Z,6.75
2022-12-12T04:42:55.064Z,8.70
2022-12-12T04:48:00.349Z,7.10
2022-12-12T04:53:16.554Z,8.65
2022-12-12T04:58:22.429Z,10.18
2022-12-12T05:03:37.613Z,12.63
2022-12-12T05:13:47.744Z,8.52
2022-12-12T05:18:51.392Z,8.65
2022-12-12T05:23:56.318Z,9.32
2022-12-12T05:34:10.436Z,11.77
2022-12-12T05:39:15.449Z,9.00
2022-12-12T05:44:18.934Z,11.45
2022-12-12T05:49:22.754Z,10.10
2022-12-12T05:54:27.707Z,12.10
2022-12-12T06:04:34.985Z,9.98
2022-12-12T06:09:40.732Z,9.05
2022-12-12T06:14:44.194Z,8.50
2022-12-12T06:19:47.778Z,10.45
2022-12-12T06:24:53.198Z,7.43
2022-12-12T06:29:56.847Z,7.97
2022-12-12T06:35:00.230Z,9.20
2022-12-12T06:40:05.807Z,8.85
2022-12-12T06:45:09.735Z,6.88
2022-12-12T06:50:15.014Z,7.10
2022-12-12T06:55:21.675Z,6.72
2022-12-12T07:05:28.479Z,8.48
2022-12-12T07:10:33.465Z,8.70
2022-12-12T07:15:36.989Z,8.00
2022-12-12T07:20:41.851Z,7.40
2022-12-12T07:25:46.925Z,7.65
2022-12-12T07:30:50.648Z,7.13
2022-12-12T07:35:59.471Z,8.07
2022-12-12T07:41:07.383Z,9.75
2022-12-12T07:46:12.688Z,9.38
2022-12-12T07:51:17.172Z,8.68
2022-12-12T07:56:22.416Z,9.65
2022-12-12T08:01:30.040Z,9.57
2022-12-12T08:06:33.953Z,10.98
2022-12-12T08:11:46.077Z,12.15
2022-12-12T08:16:49.959Z,11.77
2022-12-12T08:21:53.598Z,10.05
2022-12-12T08:26:58.838Z,10.48
2022-12-12T08:32:04.282Z,10.60
2022-12-12T08:37:07.872Z,11.38
2022-12-12T08:42:13.630Z,9.70
2022-12-12T08:47:17.326Z,9.88
2022-12-12T08:52:20.677Z,11.50
2022-12-12T08:57:26.750Z,10.43
2022-12-12T09:02:30.358Z,13.05
2022-12-12T09:07:34.150Z,12.45
2022-12-12T09:12:41.855Z,10.65
2022-12-12T09:17:45.775Z,8.95
2022-12-12T09:22:49.185Z,10.60
2022-12-12T09:27:54.254Z,10.95
2022-12-12T09:32:57.579Z,9.88
2022-12-12T09:38:01.345Z,9.02
2022-12-12T09:43:06.603Z,11.25
2022-12-12T09:48:10.836Z,13.10
2022-12-12T09:53:17.222Z,13.73
2022-12-12T09:58:28.013Z,12.57
2022-12-12T10:03:43.916Z,12.55
2022-12-12T10:08:57.706Z,14.23
2022-12-12T10:14:06.340Z,13.55
2022-12-12T10:19:16.304Z,13.75
2022-12-12T10:24:31.761Z,14.27
2022-12-12T10:29:41.426Z,14.20
2022-12-12T10:34:55.231Z,14.57
2022-12-12T10:40:10.924Z,12.90
2022-12-12T10:45:46.773Z,16.70
2022-12-12T10:50:53.059Z,16.58
2022-12-12T10:56:00.878Z,17.15
2022-12-12T11:01:12.294Z,17.27
2022-12-12T11:06:20.268Z,18.00
2022-12-12T11:11:25.486Z,19.42
2022-12-12T11:16:41.039Z,17.55
2022-12-12T11:21:45.016Z,19.90
2022-12-12T11:26:54.002Z,15.90
2022-12-12T11:32:00.648Z,20.52
2022-12-12T11:37:04.792Z,18.40
2022-12-12T11:42:20.506Z,19.00
2022-12-12T11:47:27.830Z,17.27
2022-12-12T11:52:33.084Z,20.13
2022-12-12T11:57:53.114Z,17.00
2022-12-12T12:03:28.607Z,19.75
2022-12-12T12:08:45.422Z,19.80
2022-12-12T12:14:05.187Z,22.27
2022-12-12T12:19:18.451Z,21.02
2022-12-12T12:24:46.194Z,20.98
2022-12-12T12:30:18.517Z,22.30
2022-12-12T12:35:31.048Z,21.70
2022-12-12T12:40:46.050Z,22.02
2022-12-12T12:45:54.323Z,24.27
2022-12-12T12:51:06.330Z,22.38
2022-12-12T12:56:25.145Z,21.13
2022-12-12T13:01:36.484Z,22.00
2022-12-12T13:06:47.712Z,18.17
2022-12-12T13:11:56.061Z,21.58
2022-12-12T13:17:07.042Z,19.95
2022-12-12T13:22:16.757Z,16.90
2022-12-12T13:27:25.568Z,17.90
2022-12-12T13:32:57.863Z,14.25
2022-12-12T13:38:04.534Z,16.30
2022-12-12T13:43:10.393Z,16.83
2022-12-12T13:48:46.301Z,15.18
2022-12-12T13:54:14.082Z,15.23
2022-12-12T13:59:31.303Z,15.02
2022-12-12T14:04:37.165Z,14.98
2022-12-12T14:09:48.652Z,13.82
2022-12-12T14:14:57.260Z,13.27
2022-12-12T14:20:02.119Z,12.93
2022-12-12T14:25:09.912Z,15.05
2022-12-12T14:30:19.189Z,13.50
2022-12-12T14:35:33.000Z,11.13
2022-12-12T14:40:44.793Z,9.77
2022-12-12T14:45:56.400Z,10.30
2022-12-12T14:51:10.675Z,7.80
2022-12-12T14:56:18.042Z,7.37
2022-12-12T15:01:33.897Z,8.63
2022-12-12T15:06:39.466Z,8.90
2022-12-12T15:11:44.921Z,6.95
2022-12-12T15:16:53.426Z,7.32
2022-12-12T15:21:58.426Z,7.60
2022-12-12T15:27:03.206Z,7.10
2022-12-12T15:32:09.583Z,7.30
2022-12-12T15:37:21.066Z,5.63
2022-12-12T15:42:26.225Z,6.32
2022-12-12T15:47:29.922Z,7.63
2022-12-12T15:52:33.355Z,6.80
2022-12-12T15:57:48.792Z,7.47
2022-12-12T16:03:20.102Z,6.22
2022-12-12T16:08:36.866Z,7.93
2022-12-12T16:13:45.171Z,6.32
2022-12-12T16:18:48.796Z,7.57
2022-12-12T16:23:52.291Z,6.82
2022-12-12T16:28:57.347Z,7.75
2022-12-12T16:34:03.791Z,8.50
2022-12-12T16:39:07.582Z,7.40
2022-12-12T16:44:12.452Z,7.85
2022-12-12T16:54:19.666Z,6.95
2022-12-12T16:59:24.697Z,6.30
2022-12-12T17:04:28.914Z,4.90
2022-12-12T17:09:32.817Z,6.50
2022-12-12T17:14:37.826Z,5.68
2022-12-12T17:19:41.461Z,8.38
2022-12-12T17:24:44.954Z,6.65
2022-12-12T17:29:50.025Z,6.80
2022-12-12T17:34:53.439Z,7.15
2022-12-12T17:39:57.161Z,6.65
2022-12-12T17:45:20.698Z,5.90
2022-12-12T17:50:24.241Z,6.95
2022-12-12T17:55:51.866Z,7.35
2022-12-12T18:00:52.707Z,6.97
2022-12-12T18:05:56.168Z,8.23
2022-12-12T18:10:59.880Z,7.90
2022-12-12T18:16:05.065Z,6.28
2022-12-12T18:21:12.872Z,6.40
2022-12-12T18:26:22.288Z,7.53
2022-12-12T18:31:27.550Z,6.55
2022-12-12T18:36:32.696Z,7.03
2022-12-12T18:41:37.150Z,6.22
2022-12-12T18:46:43.811Z,6.97
2022-12-12T18:51:48.580Z,8.75
2022-12-12T18:56:52.193Z,6.78
2022-12-12T19:01:57.418Z,9.40
2022-12-12T19:07:01.035Z,7.10
2022-12-12T19:12:05.082Z,6.05
2022-12-12T19:17:10.206Z,6.43
2022-12-12T19:22:39.978Z,7.22
2022-12-12T19:27:37.502Z,6.68
2022-12-12T19:32:42.373Z,7.80
2022-12-12T19:42:49.207Z,6.90
2022-12-12T19:47:54.212Z,7.95
2022-12-12T19:52:57.558Z,7.50
2022-12-12T19:58:02.911Z,7.70
2022-12-12T20:03:08.006Z,8.35
2022-12-12T20:08:11.649Z,6.80
2022-12-12T20:13:15.086Z,6.20
2022-12-12T20:18:20.096Z,8.90
2022-12-12T20:23:23.610Z,8.50
2022-12-12T20:28:27.341Z,9.48
2022-12-12T20:33:32.239Z,8.15
2022-12-12T20:38:37.802Z,8.38
2022-12-12T20:43:42.199Z,7.65
2022-12-12T20:48:48.177Z,8.80
2022-12-12T20:53:52.558Z,5.57
2022-12-12T20:58:57.849Z,5.68
2022-12-12T21:04:04.541Z,6.72
2022-12-12T21:09:10.625Z,6.25
2022-12-12T21:14:14.274Z,7.13
2022-12-12T21:19:21.175Z,7.85
2022-12-12T21:24:24.705Z,6.32
2022-12-12T21:29:28.297Z,6.22
2022-12-12T21:34:33.025Z,6.18
2022-12-12T21:39:36.650Z,5.95
2022-12-12T21:44:45.513Z,6.53
2022-12-12T21:49:50.905Z,7.10
2022-12-12T21:54:54.362Z,7.00
2022-12-12T21:59:57.986Z,7.22
2022-12-12T22:05:02.842Z,5.85
2022-12-12T22:10:11.028Z,5.70
2022-12-12T22:15:16.455Z,5.43
2022-12-12T22:20:21.701Z,5.30
2022-12-12T22:30:28.497Z,5.90
2022-12-12T22:35:33.364Z,6.60
2022-12-12T22:45:40.122Z,5.28
2022-12-12T22:50:45.116Z,5.70
2022-12-12T22:55:48.543Z,7.07
2022-12-12T23:00:52.097Z,5.70
2022-12-12T23:06:03.585Z,7.45
2022-12-12T23:11:09.703Z,5.65
2022-12-12T23:16:15.924Z,8.57
2022-12-12T23:21:24.637Z,6.78
2022-12-12T23:26:30.634Z,6.18
2022-12-12T23:31:37.967Z,6.00
2022-12-12T23:36:44.217Z,5.70
2022-12-12T23:41:47.882Z,7.72
2022-12-12T23:46:51.944Z,4.65
2022-12-12T23:51:59.304Z,5.10
2022-12-12T23:57:03.508Z,6.28
